Aérodrome :
LOGIN :

S'inscrire | Disclaimer

   EN    FR    IT 

 










Légende :    VFR   VFR Marginal   IFR   IFR Intensif   IFR Très Intensif
Visi : 
Plafond : 
>= 8 km
>= 3000ft
5 à 8 km
1000 à 3000 ft
1500m à 5 km
500 à 1000 ft
800 à 1500m
200 à 500 ft
< 800m
< 200 ft
Symboles :   Orages  Brouillard  Fortes neiges  Fortes précipitations  Vent > 20 kt
SIGMETs :   Divers  Orages  Givrage  Turbulence  Onde Orograph.  Cendres Volcan.







- Altitude de l'aérodrome : 277 ft
- Code IATA : JER
- Voir les cartes d'approche


EGJJ - Jersey

DERNIER METAR :
  • 172250Z AUTO 27007KT 9999 BKN045/// 16/14 Q1019

METARs EXPIRÉS :
  • 172220Z AUTO 27006KT 9999 SCT043/// 16/14 Q1019
  • 172150Z AUTO 28004KT 9999 4500 OVC042/// 16/14 Q1019
  • 172120Z AUTO 27004KT 9999 BKN041/// 16/13 Q1019
  • 172050Z AUTO 27005KT 9999 FEW042/// 16/14 Q1019
  • 172020Z AUTO 27005KT 9999 SCT046/// 16/13 Q1019

TAF TAF EGJJ
Valide du 17 à 21h jusqu'au 18 à 06h UTC


172000Z 1721/1806 28007KT 9999 FEW030
ATIS : +44 1534 498 073
Pas de NOTAMs connus pour ce terrain.



MET'MAP, la Météo Aéronautique d'un coup d'oeil ! - Copyright ORBIFLY Décembre 2007 - Disclaimer

ORBIFLY MET'MAP TEAM :

Programmation & Développement : Alexandra Zaïnal
Conception & Développement : Baudouin d'Aumeries
Co-Programmation & Développement : Marc-Olivier Méhu
Soutien technique & logistique : Manuel Goepfert

Contact : metmap@orbifly.com




SOURCES & CREDITS :

   NOAA